To NAV CANADA Home Page Login to a new session Search on AWWS site Feedback and Comments Disclaimer Vers la page française équivalente Tips FAQ What's new on the site To the Forecasts and Observations / NOTAM section To "File a Flight Plan" website Publications and other links Update of the User's profile FIC Telephone Numbers My Weather Data Folder Route Weather Data Regional Weather Data Local Weather Data To the Forecasts and Observations / NOTAM section
Request Generated 04/19/2015 at 15:39:06 UTC . Weather information available at that time is displayed.

METAR/TAF

CALGARY/SPRINGBANK/AB    (show WxCam)

METAR CYBW 191500Z AUTO 32006KT 9SM OVC095 M01/M04 A3025 RMK SLP291=
METAR CYBW 191400Z AUTO 32006KT 9SM SCT095 M04/M05 A3026 RMK SLP294=
METAR CYBW 191300Z AUTO 31006KT 9SM CLR M07/M08 A3025 RMK SLP291=

TAF CYBW 191138Z 1912/1924 31005KT P6SM FEW080
FM191600 16006KT P6SM SCT080
RMK FCST BASED ON AUTO OBS. NXT FCST BY 191800Z=
Your time UTC time
Weather data provided by Environment Canada and NAV CANADA